<?xml version="1.0" encoding="UTF-8"?><gpx creator="Wikiloc - https://www.wikiloc.com" version="1.1" xmlns="http://www.topografix.com/GPX/1/1" xmlns:xsi="http://www.w3.org/2001/XMLSchema-instance" xsi:schemaLocation="http://www.topografix.com/GPX/1/1 http://www.topografix.com/GPX/1/1/gpx.xsd"><metadata><name>Wikiloc - Paseos Rurales - Garganta de los Infiernos</name><author><name>Red Extremeña de Desarrollo Rural (REDEX)</name><link href="https://www.wikiloc.com/wikiloc/user.do?id=2006209"><text>Red Extremeña de Desarrollo Rural (REDEX) on Wikiloc</text></link></author><link href="https://www.wikiloc.com/hiking-trails/paseos-rurales-garganta-de-los-infiernos-12495999"><text>Paseos Rurales - Garganta de los Infiernos on Wikiloc</text></link><time>2016-02-25T18:17:04Z</time></metadata><trk><name>Paseos Rurales - Garganta de los Infiernos</name><cmt></cmt><desc></desc><trkseg><trkpt lat="40.205816" lon="-5.772269"><ele>549.628</ele><time>2016-02-25T18:07:06Z</time></trkpt><trkpt lat="40.205747" lon="-5.772272"><ele>550.089</ele><time>2016-02-25T18:07:07Z</time></trkpt><trkpt lat="40.205658" lon="-5.772248"><ele>550.417</ele><time>2016-02-25T18:07:08Z</time></trkpt><trkpt lat="40.205614" lon="-5.772248"><ele>550.608</ele><time>2016-02-25T18:07:09Z</time></trkpt><trkpt lat="40.205579" lon="-5.772258"><ele>551.133</ele><time>2016-02-25T18:07:09Z</time></trkpt><trkpt lat="40.205547" lon="-5.772250"><ele>551.864</ele><time>2016-02-25T18:07:09Z</time></trkpt><trkpt lat="40.205499" lon="-5.772261"><ele>553.396</ele><time>2016-02-25T18:07:10Z</time></trkpt><trkpt lat="40.205455" lon="-5.772276"><ele>555.281</ele><time>2016-02-25T18:07:11Z</time></trkpt><trkpt lat="40.205410" lon="-5.772261"><ele>557.597</ele><time>2016-02-25T18:07:11Z</time></trkpt><trkpt lat="40.205350" lon="-5.772323"><ele>559.161</ele><time>2016-02-25T18:07:12Z</time></trkpt><trkpt lat="40.205319" lon="-5.772337"><ele>560.361</ele><time>2016-02-25T18:07:12Z</time></trkpt><trkpt lat="40.205274" lon="-5.772408"><ele>561.551</ele><time>2016-02-25T18:07:13Z</time></trkpt><trkpt lat="40.205203" lon="-5.772484"><ele>563.011</ele><time>2016-02-25T18:07:14Z</time></trkpt><trkpt lat="40.205151" lon="-5.772515"><ele>564.121</ele><time>2016-02-25T18:07:15Z</time></trkpt><trkpt lat="40.205079" lon="-5.772467"><ele>566.303</ele><time>2016-02-25T18:07:16Z</time></trkpt><trkpt lat="40.205022" lon="-5.772468"><ele>567.608</ele><time>2016-02-25T18:07:16Z</time></trkpt><trkpt lat="40.204990" lon="-5.772463"><ele>568.172</ele><time>2016-02-25T18:07:17Z</time></trkpt><trkpt lat="40.204994" lon="-5.772434"><ele>568.643</ele><time>2016-02-25T18:07:17Z</time></trkpt><trkpt lat="40.205006" lon="-5.772416"><ele>568.835</ele><time>2016-02-25T18:07:17Z</time></trkpt><trkpt lat="40.204902" lon="-5.772389"><ele>571.040</ele><time>2016-02-25T18:07:18Z</time></trkpt><trkpt lat="40.204837" lon="-5.772352"><ele>572.156</ele><time>2016-02-25T18:07:19Z</time></trkpt><trkpt lat="40.204798" lon="-5.772260"><ele>574.840</ele><time>2016-02-25T18:07:20Z</time></trkpt><trkpt lat="40.204794" lon="-5.772242"><ele>575.190</ele><time>2016-02-25T18:07:20Z</time></trkpt><trkpt lat="40.204802" lon="-5.772149"><ele>576.930</ele><time>2016-02-25T18:07:21Z</time></trkpt><trkpt lat="40.204760" lon="-5.772033"><ele>579.879</ele><time>2016-02-25T18:07:22Z</time></trkpt><trkpt lat="40.204680" lon="-5.772014"><ele>581.105</ele><time>2016-02-25T18:07:23Z</time></trkpt><trkpt lat="40.204587" lon="-5.771987"><ele>581.925</ele><time>2016-02-25T18:07:24Z</time></trkpt><trkpt lat="40.204535" lon="-5.771895"><ele>582.908</ele><time>2016-02-25T18:07:25Z</time></trkpt><trkpt lat="40.204545" lon="-5.771780"><ele>584.858</ele><time>2016-02-25T18:07:26Z</time></trkpt><trkpt lat="40.204491" lon="-5.771673"><ele>584.869</ele><time>2016-02-25T18:07:27Z</time></trkpt><trkpt lat="40.204512" lon="-5.771670"><ele>585.641</ele><time>2016-02-25T18:07:27Z</time></trkpt><trkpt lat="40.204550" lon="-5.771589"><ele>587.026</ele><time>2016-02-25T18:07:28Z</time></trkpt><trkpt lat="40.204545" lon="-5.771579"><ele>587.162</ele><time>2016-02-25T18:07:28Z</time></trkpt><trkpt lat="40.204560" lon="-5.771454"><ele>589.196</ele><time>2016-02-25T18:07:29Z</time></trkpt><trkpt lat="40.204563" lon="-5.771423"><ele>589.416</ele><time>2016-02-25T18:07:29Z</time></trkpt><trkpt lat="40.204603" lon="-5.771294"><ele>590.346</ele><time>2016-02-25T18:07:31Z</time></trkpt><trkpt lat="40.204652" lon="-5.771207"><ele>592.933</ele><time>2016-02-25T18:07:32Z</time></trkpt><trkpt lat="40.204722" lon="-5.771210"><ele>595.823</ele><time>2016-02-25T18:07:32Z</time></trkpt><trkpt lat="40.204811" lon="-5.771256"><ele>597.615</ele><time>2016-02-25T18:07:33Z</time></trkpt><trkpt lat="40.204853" lon="-5.771295"><ele>596.508</ele><time>2016-02-25T18:07:34Z</time></trkpt><trkpt lat="40.204838" lon="-5.771195"><ele>599.084</ele><time>2016-02-25T18:07:35Z</time></trkpt><trkpt lat="40.204776" lon="-5.771058"><ele>601.415</ele><time>2016-02-25T18:07:36Z</time></trkpt><trkpt lat="40.204765" lon="-5.770961"><ele>602.357</ele><time>2016-02-25T18:07:37Z</time></trkpt><trkpt lat="40.204769" lon="-5.770856"><ele>602.942</ele><time>2016-02-25T18:07:38Z</time></trkpt><trkpt lat="40.204811" lon="-5.770691"><ele>604.728</ele><time>2016-02-25T18:07:39Z</time></trkpt><trkpt lat="40.204804" lon="-5.770572"><ele>604.312</ele><time>2016-02-25T18:07:40Z</time></trkpt><trkpt lat="40.204796" lon="-5.770396"><ele>605.642</ele><time>2016-02-25T18:07:42Z</time></trkpt><trkpt lat="40.204761" lon="-5.770249"><ele>608.352</ele><time>2016-02-25T18:07:43Z</time></trkpt><trkpt lat="40.204706" lon="-5.770108"><ele>608.653</ele><time>2016-02-25T18:07:44Z</time></trkpt><trkpt lat="40.204683" lon="-5.769990"><ele>610.104</ele><time>2016-02-25T18:07:46Z</time></trkpt><trkpt lat="40.204678" lon="-5.769881"><ele>611.514</ele><time>2016-02-25T18:07:46Z</time></trkpt><trkpt lat="40.204735" lon="-5.769958"><ele>612.808</ele><time>2016-02-25T18:07:47Z</time></trkpt><trkpt lat="40.204799" lon="-5.770042"><ele>613.876</ele><time>2016-02-25T18:07:48Z</time></trkpt><trkpt lat="40.204833" lon="-5.770089"><ele>614.017</ele><time>2016-02-25T18:07:49Z</time></trkpt><trkpt lat="40.204852" lon="-5.770046"><ele>615.349</ele><time>2016-02-25T18:07:49Z</time></trkpt><trkpt lat="40.204854" lon="-5.769983"><ele>616.544</ele><time>2016-02-25T18:07:50Z</time></trkpt><trkpt lat="40.204866" lon="-5.769854"><ele>619.140</ele><time>2016-02-25T18:07:51Z</time></trkpt><trkpt lat="40.204883" lon="-5.769738"><ele>621.394</ele><time>2016-02-25T18:07:52Z</time></trkpt><trkpt lat="40.204949" lon="-5.769665"><ele>623.254</ele><time>2016-02-25T18:07:53Z</time></trkpt><trkpt lat="40.204939" lon="-5.769571"><ele>625.084</ele><time>2016-02-25T18:07:54Z</time></trkpt><trkpt lat="40.204880" lon="-5.769492"><ele>627.722</ele><time>2016-02-25T18:07:55Z</time></trkpt><trkpt lat="40.204799" lon="-5.769379"><ele>629.962</ele><time>2016-02-25T18:07:56Z</time></trkpt><trkpt lat="40.204750" lon="-5.769244"><ele>632.308</ele><time>2016-02-25T18:07:57Z</time></trkpt><trkpt lat="40.204683" lon="-5.769138"><ele>634.008</ele><time>2016-02-25T18:07:58Z</time></trkpt><trkpt lat="40.204600" lon="-5.769012"><ele>636.983</ele><time>2016-02-25T18:08:00Z</time></trkpt><trkpt lat="40.204496" lon="-5.768913"><ele>638.474</ele><time>2016-02-25T18:08:01Z</time></trkpt><trkpt lat="40.204414" lon="-5.768819"><ele>640.426</ele><time>2016-02-25T18:08:02Z</time></trkpt><trkpt lat="40.204317" lon="-5.768727"><ele>643.081</ele><time>2016-02-25T18:08:04Z</time></trkpt><trkpt lat="40.204264" lon="-5.768661"><ele>645.397</ele><time>2016-02-25T18:08:05Z</time></trkpt><trkpt lat="40.204173" lon="-5.768670"><ele>647.171</ele><time>2016-02-25T18:08:06Z</time></trkpt><trkpt lat="40.204099" lon="-5.768653"><ele>648.041</ele><time>2016-02-25T18:08:06Z</time></trkpt><trkpt lat="40.204033" lon="-5.768593"><ele>649.721</ele><time>2016-02-25T18:08:07Z</time></trkpt><trkpt lat="40.204006" lon="-5.768578"><ele>649.987</ele><time>2016-02-25T18:08:08Z</time></trkpt><trkpt lat="40.203979" lon="-5.768560"><ele>650.442</ele><time>2016-02-25T18:08:08Z</time></trkpt><trkpt lat="40.203983" lon="-5.768535"><ele>651.626</ele><time>2016-02-25T18:08:08Z</time></trkpt><trkpt lat="40.203907" lon="-5.768462"><ele>653.108</ele><time>2016-02-25T18:08:09Z</time></trkpt><trkpt lat="40.203880" lon="-5.768446"><ele>653.379</ele><time>2016-02-25T18:08:10Z</time></trkpt><trkpt lat="40.203840" lon="-5.768390"><ele>654.940</ele><time>2016-02-25T18:08:10Z</time></trkpt><trkpt lat="40.203708" lon="-5.768327"><ele>654.952</ele><time>2016-02-25T18:08:12Z</time></trkpt><trkpt lat="40.203604" lon="-5.768278"><ele>655.727</ele><time>2016-02-25T18:08:13Z</time></trkpt><trkpt lat="40.203547" lon="-5.768267"><ele>655.393</ele><time>2016-02-25T18:08:14Z</time></trkpt><trkpt lat="40.203430" lon="-5.768231"><ele>656.667</ele><time>2016-02-25T18:08:15Z</time></trkpt><trkpt lat="40.203329" lon="-5.768151"><ele>658.677</ele><time>2016-02-25T18:08:16Z</time></trkpt><trkpt lat="40.203196" lon="-5.768086"><ele>659.857</ele><time>2016-02-25T18:08:18Z</time></trkpt><trkpt lat="40.203123" lon="-5.768064"><ele>660.089</ele><time>2016-02-25T18:08:19Z</time></trkpt><trkpt lat="40.203061" lon="-5.768076"><ele>659.206</ele><time>2016-02-25T18:08:19Z</time></trkpt><trkpt lat="40.202931" lon="-5.768050"><ele>660.826</ele><time>2016-02-25T18:08:21Z</time></trkpt><trkpt lat="40.202841" lon="-5.768027"><ele>661.908</ele><time>2016-02-25T18:08:22Z</time></trkpt><trkpt lat="40.202738" lon="-5.768020"><ele>663.379</ele><time>2016-02-25T18:08:23Z</time></trkpt><trkpt lat="40.202625" lon="-5.768027"><ele>664.830</ele><time>2016-02-25T18:08:24Z</time></trkpt><trkpt lat="40.202585" lon="-5.768060"><ele>664.662</ele><time>2016-02-25T18:08:25Z</time></trkpt><trkpt lat="40.202475" lon="-5.768095"><ele>666.337</ele><time>2016-02-25T18:08:26Z</time></trkpt><trkpt lat="40.202398" lon="-5.768145"><ele>666.623</ele><time>2016-02-25T18:08:27Z</time></trkpt><trkpt lat="40.202333" lon="-5.768131"><ele>668.377</ele><time>2016-02-25T18:08:28Z</time></trkpt><trkpt lat="40.202229" lon="-5.768134"><ele>669.577</ele><time>2016-02-25T18:08:29Z</time></trkpt><trkpt lat="40.202174" lon="-5.768153"><ele>669.917</ele><time>2016-02-25T18:08:30Z</time></trkpt><trkpt lat="40.202072" lon="-5.768178"><ele>672.149</ele><time>2016-02-25T18:08:31Z</time></trkpt><trkpt lat="40.201960" lon="-5.768148"><ele>671.902</ele><time>2016-02-25T18:08:32Z</time></trkpt><trkpt lat="40.201885" lon="-5.768061"><ele>673.622</ele><time>2016-02-25T18:08:33Z</time></trkpt><trkpt lat="40.201876" lon="-5.768043"><ele>673.808</ele><time>2016-02-25T18:08:33Z</time></trkpt><trkpt lat="40.201848" lon="-5.767992"><ele>674.145</ele><time>2016-02-25T18:08:34Z</time></trkpt><trkpt lat="40.201801" lon="-5.767933"><ele>674.336</ele><time>2016-02-25T18:08:35Z</time></trkpt><trkpt lat="40.201781" lon="-5.767893"><ele>675.038</ele><time>2016-02-25T18:08:35Z</time></trkpt><trkpt lat="40.201713" lon="-5.767780"><ele>675.523</ele><time>2016-02-25T18:08:36Z</time></trkpt><trkpt lat="40.201676" lon="-5.767672"><ele>676.349</ele><time>2016-02-25T18:08:37Z</time></trkpt><trkpt lat="40.201616" lon="-5.767561"><ele>675.433</ele><time>2016-02-25T18:08:38Z</time></trkpt><trkpt lat="40.201579" lon="-5.767479"><ele>675.413</ele><time>2016-02-25T18:08:39Z</time></trkpt><trkpt lat="40.201536" lon="-5.767398"><ele>675.563</ele><time>2016-02-25T18:08:40Z</time></trkpt><trkpt lat="40.201514" lon="-5.767359"><ele>675.237</ele><time>2016-02-25T18:08:40Z</time></trkpt><trkpt lat="40.201464" lon="-5.767272"><ele>674.749</ele><time>2016-02-25T18:08:41Z</time></trkpt><trkpt lat="40.201453" lon="-5.767259"><ele>674.513</ele><time>2016-02-25T18:08:42Z</time></trkpt><trkpt lat="40.201450" lon="-5.767181"><ele>674.708</ele><time>2016-02-25T18:08:42Z</time></trkpt><trkpt lat="40.201440" lon="-5.767160"><ele>674.994</ele><time>2016-02-25T18:08:42Z</time></trkpt><trkpt lat="40.201389" lon="-5.766993"><ele>675.055</ele><time>2016-02-25T18:08:44Z</time></trkpt><trkpt lat="40.201329" lon="-5.766891"><ele>674.687</ele><time>2016-02-25T18:08:45Z</time></trkpt><trkpt lat="40.201323" lon="-5.766724"><ele>676.932</ele><time>2016-02-25T18:08:46Z</time></trkpt><trkpt lat="40.201293" lon="-5.766588"><ele>679.218</ele><time>2016-02-25T18:08:48Z</time></trkpt><trkpt lat="40.201261" lon="-5.766501"><ele>679.862</ele><time>2016-02-25T18:08:48Z</time></trkpt><trkpt lat="40.201226" lon="-5.766396"><ele>680.752</ele><time>2016-02-25T18:08:49Z</time></trkpt><trkpt lat="40.201199" lon="-5.766281"><ele>681.792</ele><time>2016-02-25T18:08:50Z</time></trkpt><trkpt lat="40.201168" lon="-5.766270"><ele>681.818</ele><time>2016-02-25T18:08:51Z</time></trkpt><trkpt lat="40.201118" lon="-5.766076"><ele>684.998</ele><time>2016-02-25T18:08:53Z</time></trkpt><trkpt lat="40.201038" lon="-5.765995"><ele>686.317</ele><time>2016-02-25T18:08:54Z</time></trkpt><trkpt lat="40.200940" lon="-5.765899"><ele>688.908</ele><time>2016-02-25T18:08:55Z</time></trkpt><trkpt lat="40.200874" lon="-5.765804"><ele>691.582</ele><time>2016-02-25T18:08:56Z</time></trkpt><trkpt lat="40.200819" lon="-5.765718"><ele>694.113</ele><time>2016-02-25T18:08:57Z</time></trkpt><trkpt lat="40.200710" lon="-5.765633"><ele>692.725</ele><time>2016-02-25T18:08:58Z</time></trkpt><trkpt lat="40.200608" lon="-5.765622"><ele>691.060</ele><time>2016-02-25T18:09:00Z</time></trkpt><trkpt lat="40.200512" lon="-5.765556"><ele>691.136</ele><time>2016-02-25T18:09:01Z</time></trkpt><trkpt lat="40.200501" lon="-5.765532"><ele>691.710</ele><time>2016-02-25T18:09:01Z</time></trkpt><trkpt lat="40.200404" lon="-5.765386"><ele>693.710</ele><time>2016-02-25T18:09:03Z</time></trkpt><trkpt lat="40.200374" lon="-5.765271"><ele>694.390</ele><time>2016-02-25T18:09:04Z</time></trkpt><trkpt lat="40.200272" lon="-5.765107"><ele>694.313</ele><time>2016-02-25T18:09:06Z</time></trkpt><trkpt lat="40.200246" lon="-5.765091"><ele>693.843</ele><time>2016-02-25T18:09:06Z</time></trkpt><trkpt lat="40.200186" lon="-5.764948"><ele>693.107</ele><time>2016-02-25T18:09:07Z</time></trkpt><trkpt lat="40.200176" lon="-5.764873"><ele>693.508</ele><time>2016-02-25T18:09:08Z</time></trkpt><trkpt lat="40.200170" lon="-5.764831"><ele>693.612</ele><time>2016-02-25T18:09:08Z</time></trkpt><trkpt lat="40.200131" lon="-5.764667"><ele>693.613</ele><time>2016-02-25T18:09:10Z</time></trkpt><trkpt lat="40.200127" lon="-5.764654"><ele>693.515</ele><time>2016-02-25T18:09:10Z</time></trkpt><trkpt lat="40.200030" lon="-5.764461"><ele>692.370</ele><time>2016-02-25T18:09:12Z</time></trkpt><trkpt lat="40.200017" lon="-5.764445"><ele>692.076</ele><time>2016-02-25T18:09:12Z</time></trkpt><trkpt lat="40.199910" lon="-5.764297"><ele>691.910</ele><time>2016-02-25T18:09:14Z</time></trkpt><trkpt lat="40.199899" lon="-5.764274"><ele>692.330</ele><time>2016-02-25T18:09:14Z</time></trkpt><trkpt lat="40.199873" lon="-5.764234"><ele>692.710</ele><time>2016-02-25T18:09:14Z</time></trkpt><trkpt lat="40.199783" lon="-5.764139"><ele>691.851</ele><time>2016-02-25T18:09:16Z</time></trkpt><trkpt lat="40.199672" lon="-5.764096"><ele>690.201</ele><time>2016-02-25T18:09:17Z</time></trkpt><trkpt lat="40.199519" lon="-5.764043"><ele>691.211</ele><time>2016-02-25T18:09:19Z</time></trkpt><trkpt lat="40.199472" lon="-5.764019"><ele>691.508</ele><time>2016-02-25T18:09:19Z</time></trkpt><trkpt lat="40.199441" lon="-5.763986"><ele>692.246</ele><time>2016-02-25T18:09:20Z</time></trkpt><trkpt lat="40.199426" lon="-5.763975"><ele>692.357</ele><time>2016-02-25T18:09:20Z</time></trkpt><trkpt lat="40.199390" lon="-5.763928"><ele>693.819</ele><time>2016-02-25T18:09:20Z</time></trkpt><trkpt lat="40.199302" lon="-5.763849"><ele>692.874</ele><time>2016-02-25T18:09:22Z</time></trkpt><trkpt lat="40.199295" lon="-5.763790"><ele>693.180</ele><time>2016-02-25T18:09:22Z</time></trkpt><trkpt lat="40.199313" lon="-5.763692"><ele>694.224</ele><time>2016-02-25T18:09:23Z</time></trkpt><trkpt lat="40.199299" lon="-5.763490"><ele>692.884</ele><time>2016-02-25T18:09:25Z</time></trkpt><trkpt lat="40.199301" lon="-5.763386"><ele>693.984</ele><time>2016-02-25T18:09:26Z</time></trkpt><trkpt lat="40.199292" lon="-5.763235"><ele>694.266</ele><time>2016-02-25T18:09:27Z</time></trkpt><trkpt lat="40.199283" lon="-5.763178"><ele>693.829</ele><time>2016-02-25T18:09:27Z</time></trkpt><trkpt lat="40.199281" lon="-5.763142"><ele>693.821</ele><time>2016-02-25T18:09:28Z</time></trkpt><trkpt lat="40.199246" lon="-5.762918"><ele>692.808</ele><time>2016-02-25T18:09:30Z</time></trkpt><trkpt lat="40.199247" lon="-5.762847"><ele>692.597</ele><time>2016-02-25T18:09:30Z</time></trkpt><trkpt lat="40.199272" lon="-5.762782"><ele>693.098</ele><time>2016-02-25T18:09:31Z</time></trkpt><trkpt lat="40.199264" lon="-5.762791"><ele>692.570</ele><time>2016-02-25T18:09:31Z</time></trkpt><trkpt lat="40.199256" lon="-5.762781"><ele>692.275</ele><time>2016-02-25T18:09:31Z</time></trkpt><trkpt lat="40.199277" lon="-5.762752"><ele>693.251</ele><time>2016-02-25T18:09:31Z</time></trkpt><trkpt lat="40.199341" lon="-5.762603"><ele>692.355</ele><time>2016-02-25T18:09:33Z</time></trkpt><trkpt lat="40.199482" lon="-5.762514"><ele>693.995</ele><time>2016-02-25T18:09:35Z</time></trkpt><trkpt lat="40.199589" lon="-5.762434"><ele>694.165</ele><time>2016-02-25T18:09:36Z</time></trkpt><trkpt lat="40.199649" lon="-5.762393"><ele>694.216</ele><time>2016-02-25T18:09:37Z</time></trkpt><trkpt lat="40.199761" lon="-5.762285"><ele>694.876</ele><time>2016-02-25T18:09:38Z</time></trkpt><trkpt lat="40.199831" lon="-5.762161"><ele>694.913</ele><time>2016-02-25T18:09:40Z</time></trkpt><trkpt lat="40.199890" lon="-5.762075"><ele>695.408</ele><time>2016-02-25T18:09:41Z</time></trkpt><trkpt lat="40.200001" lon="-5.761942"><ele>694.922</ele><time>2016-02-25T18:09:42Z</time></trkpt><trkpt lat="40.200132" lon="-5.761760"><ele>693.323</ele><time>2016-02-25T18:09:44Z</time></trkpt><trkpt lat="40.200144" lon="-5.761752"><ele>693.415</ele><time>2016-02-25T18:09:45Z</time></trkpt><trkpt lat="40.200171" lon="-5.761709"><ele>692.740</ele><time>2016-02-25T18:09:45Z</time></trkpt><trkpt lat="40.200290" lon="-5.761603"><ele>692.636</ele><time>2016-02-25T18:09:47Z</time></trkpt><trkpt lat="40.200411" lon="-5.761471"><ele>693.030</ele><time>2016-02-25T18:09:48Z</time></trkpt><trkpt lat="40.200510" lon="-5.761355"><ele>693.170</ele><time>2016-02-25T18:09:50Z</time></trkpt><trkpt lat="40.200584" lon="-5.761275"><ele>692.950</ele><time>2016-02-25T18:09:51Z</time></trkpt><trkpt lat="40.200702" lon="-5.761235"><ele>694.178</ele><time>2016-02-25T18:09:52Z</time></trkpt><trkpt lat="40.200793" lon="-5.761108"><ele>693.133</ele><time>2016-02-25T18:09:54Z</time></trkpt><trkpt lat="40.200894" lon="-5.760992"><ele>694.026</ele><time>2016-02-25T18:09:55Z</time></trkpt><trkpt lat="40.201039" lon="-5.760881"><ele>696.708</ele><time>2016-02-25T18:09:57Z</time></trkpt><trkpt lat="40.201118" lon="-5.760781"><ele>697.718</ele><time>2016-02-25T18:09:58Z</time></trkpt><trkpt lat="40.201215" lon="-5.760688"><ele>699.889</ele><time>2016-02-25T18:10:00Z</time></trkpt><trkpt lat="40.201224" lon="-5.760682"><ele>700.051</ele><time>2016-02-25T18:10:00Z</time></trkpt><trkpt lat="40.201305" lon="-5.760615"><ele>702.316</ele><time>2016-02-25T18:10:01Z</time></trkpt><trkpt lat="40.201378" lon="-5.760518"><ele>704.432</ele><time>2016-02-25T18:10:02Z</time></trkpt><trkpt lat="40.201455" lon="-5.760491"><ele>706.826</ele><time>2016-02-25T18:10:03Z</time></trkpt><trkpt lat="40.201525" lon="-5.760471"><ele>708.576</ele><time>2016-02-25T18:10:04Z</time></trkpt><trkpt lat="40.201569" lon="-5.760372"><ele>707.376</ele><time>2016-02-25T18:10:05Z</time></trkpt><trkpt lat="40.201609" lon="-5.760321"><ele>708.315</ele><time>2016-02-25T18:10:05Z</time></trkpt><trkpt lat="40.201638" lon="-5.760150"><ele>706.565</ele><time>2016-02-25T18:10:07Z</time></trkpt><trkpt lat="40.201671" lon="-5.759921"><ele>703.511</ele><time>2016-02-25T18:10:09Z</time></trkpt><trkpt lat="40.201677" lon="-5.759761"><ele>701.808</ele><time>2016-02-25T18:10:10Z</time></trkpt><trkpt lat="40.201715" lon="-5.759592"><ele>700.322</ele><time>2016-02-25T18:10:12Z</time></trkpt><trkpt lat="40.201760" lon="-5.759436"><ele>698.523</ele><time>2016-02-25T18:10:13Z</time></trkpt><trkpt lat="40.201816" lon="-5.759332"><ele>697.815</ele><time>2016-02-25T18:10:14Z</time></trkpt><trkpt lat="40.201833" lon="-5.759255"><ele>696.560</ele><time>2016-02-25T18:10:15Z</time></trkpt><trkpt lat="40.201849" lon="-5.759146"><ele>695.886</ele><time>2016-02-25T18:10:16Z</time></trkpt><trkpt lat="40.201884" lon="-5.758982"><ele>694.260</ele><time>2016-02-25T18:10:17Z</time></trkpt><trkpt lat="40.201889" lon="-5.758937"><ele>693.810</ele><time>2016-02-25T18:10:18Z</time></trkpt><trkpt lat="40.201890" lon="-5.758910"><ele>693.630</ele><time>2016-02-25T18:10:18Z</time></trkpt><trkpt lat="40.201855" lon="-5.758769"><ele>692.557</ele><time>2016-02-25T18:10:19Z</time></trkpt><trkpt lat="40.201846" lon="-5.758669"><ele>691.500</ele><time>2016-02-25T18:10:20Z</time></trkpt><trkpt lat="40.201826" lon="-5.758591"><ele>690.720</ele><time>2016-02-25T18:10:21Z</time></trkpt><trkpt lat="40.201802" lon="-5.758487"><ele>688.908</ele><time>2016-02-25T18:10:22Z</time></trkpt><trkpt lat="40.201759" lon="-5.758358"><ele>686.566</ele><time>2016-02-25T18:10:23Z</time></trkpt><trkpt lat="40.201756" lon="-5.758336"><ele>686.347</ele><time>2016-02-25T18:10:23Z</time></trkpt><trkpt lat="40.201731" lon="-5.758225"><ele>684.429</ele><time>2016-02-25T18:10:24Z</time></trkpt><trkpt lat="40.201716" lon="-5.758129"><ele>682.284</ele><time>2016-02-25T18:10:25Z</time></trkpt><trkpt lat="40.201694" lon="-5.758001"><ele>680.140</ele><time>2016-02-25T18:10:26Z</time></trkpt><trkpt lat="40.201686" lon="-5.757894"><ele>678.274</ele><time>2016-02-25T18:10:27Z</time></trkpt><trkpt lat="40.201688" lon="-5.757777"><ele>676.684</ele><time>2016-02-25T18:10:28Z</time></trkpt><trkpt lat="40.201689" lon="-5.757760"><ele>676.444</ele><time>2016-02-25T18:10:28Z</time></trkpt><trkpt lat="40.201704" lon="-5.757650"><ele>676.147</ele><time>2016-02-25T18:10:29Z</time></trkpt><trkpt lat="40.201710" lon="-5.757554"><ele>674.929</ele><time>2016-02-25T18:10:30Z</time></trkpt><trkpt lat="40.201726" lon="-5.757481"><ele>674.321</ele><time>2016-02-25T18:10:30Z</time></trkpt><trkpt lat="40.201734" lon="-5.757365"><ele>672.308</ele><time>2016-02-25T18:10:31Z</time></trkpt><trkpt lat="40.201751" lon="-5.757263"><ele>671.485</ele><time>2016-02-25T18:10:32Z</time></trkpt><trkpt lat="40.201783" lon="-5.757153"><ele>670.966</ele><time>2016-02-25T18:10:33Z</time></trkpt><trkpt lat="40.201808" lon="-5.756917"><ele>670.368</ele><time>2016-02-25T18:10:35Z</time></trkpt><trkpt lat="40.201849" lon="-5.756825"><ele>670.383</ele><time>2016-02-25T18:10:36Z</time></trkpt><trkpt lat="40.201952" lon="-5.756661"><ele>672.539</ele><time>2016-02-25T18:10:38Z</time></trkpt><trkpt lat="40.201977" lon="-5.756624"><ele>672.533</ele><time>2016-02-25T18:10:38Z</time></trkpt><trkpt lat="40.202076" lon="-5.756482"><ele>673.963</ele><time>2016-02-25T18:10:40Z</time></trkpt><trkpt lat="40.202145" lon="-5.756376"><ele>675.693</ele><time>2016-02-25T18:10:41Z</time></trkpt><trkpt lat="40.202215" lon="-5.756217"><ele>676.088</ele><time>2016-02-25T18:10:43Z</time></trkpt><trkpt lat="40.202273" lon="-5.756099"><ele>677.824</ele><time>2016-02-25T18:10:44Z</time></trkpt><trkpt lat="40.202311" lon="-5.756001"><ele>679.026</ele><time>2016-02-25T18:10:45Z</time></trkpt><trkpt lat="40.202345" lon="-5.755874"><ele>679.308</ele><time>2016-02-25T18:10:46Z</time></trkpt><trkpt lat="40.202359" lon="-5.755659"><ele>678.529</ele><time>2016-02-25T18:10:48Z</time></trkpt><trkpt lat="40.202370" lon="-5.755512"><ele>678.430</ele><time>2016-02-25T18:10:49Z</time></trkpt><trkpt lat="40.202430" lon="-5.755284"><ele>680.282</ele><time>2016-02-25T18:10:51Z</time></trkpt><trkpt lat="40.202445" lon="-5.755187"><ele>681.037</ele><time>2016-02-25T18:10:52Z</time></trkpt><trkpt lat="40.202421" lon="-5.755065"><ele>680.213</ele><time>2016-02-25T18:10:53Z</time></trkpt><trkpt lat="40.202425" lon="-5.754984"><ele>681.437</ele><time>2016-02-25T18:10:54Z</time></trkpt><trkpt lat="40.202388" lon="-5.754915"><ele>681.647</ele><time>2016-02-25T18:10:54Z</time></trkpt><trkpt lat="40.202356" lon="-5.754842"><ele>682.547</ele><time>2016-02-25T18:10:55Z</time></trkpt><trkpt lat="40.202302" lon="-5.754768"><ele>681.922</ele><time>2016-02-25T18:10:56Z</time></trkpt><trkpt lat="40.202221" lon="-5.754691"><ele>680.862</ele><time>2016-02-25T18:10:57Z</time></trkpt><trkpt lat="40.202097" lon="-5.754595"><ele>679.608</ele><time>2016-02-25T18:10:59Z</time></trkpt><trkpt lat="40.202044" lon="-5.754546"><ele>679.508</ele><time>2016-02-25T18:10:59Z</time></trkpt><trkpt lat="40.202005" lon="-5.754511"><ele>679.173</ele><time>2016-02-25T18:11:00Z</time></trkpt><trkpt lat="40.201957" lon="-5.754455"><ele>679.014</ele><time>2016-02-25T18:11:01Z</time></trkpt><trkpt lat="40.201910" lon="-5.754435"><ele>678.766</ele><time>2016-02-25T18:11:01Z</time></trkpt><trkpt lat="40.201854" lon="-5.754408"><ele>678.211</ele><time>2016-02-25T18:11:02Z</time></trkpt><trkpt lat="40.201823" lon="-5.754380"><ele>678.487</ele><time>2016-02-25T18:11:02Z</time></trkpt><trkpt lat="40.201797" lon="-5.754353"><ele>677.961</ele><time>2016-02-25T18:11:03Z</time></trkpt><trkpt lat="40.201754" lon="-5.754358"><ele>675.061</ele><time>2016-02-25T18:11:03Z</time></trkpt><trkpt lat="40.201734" lon="-5.754364"><ele>673.791</ele><time>2016-02-25T18:11:03Z</time></trkpt><trkpt lat="40.201752" lon="-5.754419"><ele>672.876</ele><time>2016-02-25T18:11:04Z</time></trkpt><trkpt lat="40.201717" lon="-5.754434"><ele>670.790</ele><time>2016-02-25T18:11:04Z</time></trkpt><trkpt lat="40.201679" lon="-5.754418"><ele>669.119</ele><time>2016-02-25T18:11:05Z</time></trkpt><trkpt lat="40.201597" lon="-5.754415"><ele>669.208</ele><time>2016-02-25T18:11:06Z</time></trkpt><trkpt lat="40.201567" lon="-5.754430"><ele>669.278</ele><time>2016-02-25T18:11:06Z</time></trkpt><trkpt lat="40.201548" lon="-5.754450"><ele>668.589</ele><time>2016-02-25T18:11:06Z</time></trkpt><trkpt lat="40.201522" lon="-5.754460"><ele>667.811</ele><time>2016-02-25T18:11:07Z</time></trkpt><trkpt lat="40.201499" lon="-5.754479"><ele>666.726</ele><time>2016-02-25T18:11:07Z</time></trkpt><trkpt lat="40.201409" lon="-5.754580"><ele>672.592</ele><time>2016-02-25T18:11:08Z</time></trkpt><trkpt lat="40.201355" lon="-5.754592"><ele>675.566</ele><time>2016-02-25T18:11:09Z</time></trkpt><trkpt lat="40.201341" lon="-5.754564"><ele>675.186</ele><time>2016-02-25T18:11:09Z</time></trkpt><trkpt lat="40.201310" lon="-5.754551"><ele>675.896</ele><time>2016-02-25T18:11:09Z</time></trkpt><trkpt lat="40.201270" lon="-5.754522"><ele>675.459</ele><time>2016-02-25T18:11:10Z</time></trkpt><trkpt lat="40.201188" lon="-5.754507"><ele>677.403</ele><time>2016-02-25T18:11:11Z</time></trkpt><trkpt lat="40.201187" lon="-5.754433"><ele>673.323</ele><time>2016-02-25T18:11:11Z</time></trkpt><trkpt lat="40.201163" lon="-5.754397"><ele>672.308</ele><time>2016-02-25T18:11:12Z</time></trkpt><trkpt lat="40.201085" lon="-5.754430"><ele>677.016</ele><time>2016-02-25T18:11:13Z</time></trkpt><trkpt lat="40.201033" lon="-5.754434"><ele>677.217</ele><time>2016-02-25T18:11:13Z</time></trkpt><trkpt lat="40.200975" lon="-5.754407"><ele>678.649</ele><time>2016-02-25T18:11:14Z</time></trkpt><trkpt lat="40.200913" lon="-5.754444"><ele>685.094</ele><time>2016-02-25T18:11:15Z</time></trkpt><trkpt lat="40.200851" lon="-5.754382"><ele>684.250</ele><time>2016-02-25T18:11:16Z</time></trkpt><trkpt lat="40.200790" lon="-5.754336"><ele>684.454</ele><time>2016-02-25T18:11:16Z</time></trkpt><trkpt lat="40.200759" lon="-5.754340"><ele>685.654</ele><time>2016-02-25T18:11:17Z</time></trkpt><trkpt lat="40.200777" lon="-5.754307"><ele>683.994</ele><time>2016-02-25T18:11:17Z</time></trkpt><trkpt lat="40.200737" lon="-5.754339"><ele>686.214</ele><time>2016-02-25T18:11:18Z</time></trkpt><trkpt lat="40.200668" lon="-5.754334"><ele>687.654</ele><time>2016-02-25T18:11:18Z</time></trkpt><trkpt lat="40.200611" lon="-5.754289"><ele>687.309</ele><time>2016-02-25T18:11:19Z</time></trkpt><trkpt lat="40.200546" lon="-5.754211"><ele>686.708</ele><time>2016-02-25T18:11:20Z</time></trkpt><trkpt lat="40.200468" lon="-5.754166"><ele>686.742</ele><time>2016-02-25T18:11:21Z</time></trkpt><trkpt lat="40.200434" lon="-5.754120"><ele>685.663</ele><time>2016-02-25T18:11:22Z</time></trkpt><trkpt lat="40.200408" lon="-5.754090"><ele>684.695</ele><time>2016-02-25T18:11:22Z</time></trkpt><trkpt lat="40.200256" lon="-5.753948"><ele>680.660</ele><time>2016-02-25T18:11:24Z</time></trkpt><trkpt lat="40.200346" lon="-5.754088"><ele>685.956</ele><time>2016-02-25T18:11:26Z</time></trkpt><trkpt lat="40.200440" lon="-5.754194"><ele>687.910</ele><time>2016-02-25T18:11:27Z</time></trkpt><trkpt lat="40.200411" lon="-5.754241"><ele>690.440</ele><time>2016-02-25T18:11:28Z</time></trkpt><trkpt lat="40.200343" lon="-5.754250"><ele>693.370</ele><time>2016-02-25T18:11:28Z</time></trkpt><trkpt lat="40.200295" lon="-5.754204"><ele>692.054</ele><time>2016-02-25T18:11:29Z</time></trkpt><trkpt lat="40.200252" lon="-5.754200"><ele>692.956</ele><time>2016-02-25T18:11:29Z</time></trkpt><trkpt lat="40.200171" lon="-5.754184"><ele>694.711</ele><time>2016-02-25T18:11:30Z</time></trkpt><trkpt lat="40.200095" lon="-5.754162"><ele>695.908</ele><time>2016-02-25T18:11:31Z</time></trkpt><trkpt lat="40.200132" lon="-5.754203"><ele>696.756</ele><time>2016-02-25T18:11:32Z</time></trkpt><trkpt lat="40.200209" lon="-5.754256"><ele>697.257</ele><time>2016-02-25T18:11:33Z</time></trkpt><trkpt lat="40.200302" lon="-5.754350"><ele>698.439</ele><time>2016-02-25T18:11:34Z</time></trkpt><trkpt lat="40.200352" lon="-5.754430"><ele>699.934</ele><time>2016-02-25T18:11:35Z</time></trkpt><trkpt lat="40.200347" lon="-5.754458"><ele>701.030</ele><time>2016-02-25T18:11:35Z</time></trkpt><trkpt lat="40.200361" lon="-5.754470"><ele>701.184</ele><time>2016-02-25T18:11:35Z</time></trkpt><trkpt lat="40.200372" lon="-5.754577"><ele>704.554</ele><time>2016-02-25T18:11:36Z</time></trkpt><trkpt lat="40.200393" lon="-5.754649"><ele>706.694</ele><time>2016-02-25T18:11:37Z</time></trkpt><trkpt lat="40.200424" lon="-5.754763"><ele>708.234</ele><time>2016-02-25T18:11:38Z</time></trkpt><trkpt lat="40.200424" lon="-5.754842"><ele>710.055</ele><time>2016-02-25T18:11:39Z</time></trkpt><trkpt lat="40.200458" lon="-5.754924"><ele>711.310</ele><time>2016-02-25T18:11:39Z</time></trkpt><trkpt lat="40.200495" lon="-5.755031"><ele>712.908</ele><time>2016-02-25T18:11:40Z</time></trkpt><trkpt lat="40.200528" lon="-5.755114"><ele>714.454</ele><time>2016-02-25T18:11:41Z</time></trkpt><trkpt lat="40.200566" lon="-5.755239"><ele>716.385</ele><time>2016-02-25T18:11:42Z</time></trkpt><trkpt lat="40.200596" lon="-5.755275"><ele>716.667</ele><time>2016-02-25T18:11:43Z</time></trkpt><trkpt lat="40.200564" lon="-5.755284"><ele>716.912</ele><time>2016-02-25T18:11:43Z</time></trkpt><trkpt lat="40.200433" lon="-5.755231"><ele>717.918</ele><time>2016-02-25T18:11:45Z</time></trkpt><trkpt lat="40.200424" lon="-5.755224"><ele>718.172</ele><time>2016-02-25T18:11:45Z</time></trkpt><trkpt lat="40.200408" lon="-5.755174"><ele>717.432</ele><time>2016-02-25T18:11:45Z</time></trkpt><trkpt lat="40.200326" lon="-5.754997"><ele>716.932</ele><time>2016-02-25T18:11:47Z</time></trkpt><trkpt lat="40.200294" lon="-5.754899"><ele>715.867</ele><time>2016-02-25T18:11:48Z</time></trkpt><trkpt lat="40.200213" lon="-5.754760"><ele>715.481</ele><time>2016-02-25T18:11:49Z</time></trkpt><trkpt lat="40.200205" lon="-5.754752"><ele>715.519</ele><time>2016-02-25T18:11:50Z</time></trkpt><trkpt lat="40.200169" lon="-5.754716"><ele>715.408</ele><time>2016-02-25T18:11:50Z</time></trkpt><trkpt lat="40.200051" lon="-5.754640"><ele>714.787</ele><time>2016-02-25T18:11:51Z</time></trkpt><trkpt lat="40.200001" lon="-5.754615"><ele>715.138</ele><time>2016-02-25T18:11:52Z</time></trkpt><trkpt lat="40.199913" lon="-5.754586"><ele>716.670</ele><time>2016-02-25T18:11:53Z</time></trkpt><trkpt lat="40.199864" lon="-5.754575"><ele>717.075</ele><time>2016-02-25T18:11:54Z</time></trkpt><trkpt lat="40.199832" lon="-5.754578"><ele>717.321</ele><time>2016-02-25T18:11:54Z</time></trkpt><trkpt lat="40.199754" lon="-5.754557"><ele>717.095</ele><time>2016-02-25T18:11:55Z</time></trkpt><trkpt lat="40.199711" lon="-5.754531"><ele>716.585</ele><time>2016-02-25T18:11:55Z</time></trkpt><trkpt lat="40.199707" lon="-5.754519"><ele>716.395</ele><time>2016-02-25T18:11:56Z</time></trkpt><trkpt lat="40.199629" lon="-5.754472"><ele>715.637</ele><time>2016-02-25T18:11:56Z</time></trkpt><trkpt lat="40.199557" lon="-5.754436"><ele>715.749</ele><time>2016-02-25T18:11:57Z</time></trkpt><trkpt lat="40.199419" lon="-5.754376"><ele>715.613</ele><time>2016-02-25T18:11:59Z</time></trkpt><trkpt lat="40.199397" lon="-5.754369"><ele>715.708</ele><time>2016-02-25T18:11:59Z</time></trkpt><trkpt lat="40.199325" lon="-5.754300"><ele>716.044</ele><time>2016-02-25T18:12:00Z</time></trkpt><trkpt lat="40.199270" lon="-5.754250"><ele>716.565</ele><time>2016-02-25T18:12:01Z</time></trkpt><trkpt lat="40.199242" lon="-5.754179"><ele>716.267</ele><time>2016-02-25T18:12:02Z</time></trkpt><trkpt lat="40.199279" lon="-5.754064"><ele>715.822</ele><time>2016-02-25T18:12:03Z</time></trkpt><trkpt lat="40.199295" lon="-5.754016"><ele>716.078</ele><time>2016-02-25T18:12:03Z</time></trkpt><trkpt lat="40.199320" lon="-5.753924"><ele>716.612</ele><time>2016-02-25T18:12:04Z</time></trkpt><trkpt lat="40.199339" lon="-5.753907"><ele>716.272</ele><time>2016-02-25T18:12:04Z</time></trkpt><trkpt lat="40.199363" lon="-5.753784"><ele>717.882</ele><time>2016-02-25T18:12:05Z</time></trkpt><trkpt lat="40.199378" lon="-5.753727"><ele>717.828</ele><time>2016-02-25T18:12:06Z</time></trkpt><trkpt lat="40.199409" lon="-5.753533"><ele>717.989</ele><time>2016-02-25T18:12:07Z</time></trkpt><trkpt lat="40.199408" lon="-5.753495"><ele>718.217</ele><time>2016-02-25T18:12:08Z</time></trkpt><trkpt lat="40.199420" lon="-5.753464"><ele>717.708</ele><time>2016-02-25T18:12:08Z</time></trkpt><trkpt lat="40.199414" lon="-5.753429"><ele>718.083</ele><time>2016-02-25T18:12:08Z</time></trkpt><trkpt lat="40.199390" lon="-5.753247"><ele>718.664</ele><time>2016-02-25T18:12:10Z</time></trkpt><trkpt lat="40.199376" lon="-5.753177"><ele>719.116</ele><time>2016-02-25T18:12:11Z</time></trkpt><trkpt lat="40.199350" lon="-5.752972"><ele>718.231</ele><time>2016-02-25T18:12:12Z</time></trkpt><trkpt lat="40.199320" lon="-5.752838"><ele>718.857</ele><time>2016-02-25T18:12:14Z</time></trkpt><trkpt lat="40.199290" lon="-5.752644"><ele>718.631</ele><time>2016-02-25T18:12:15Z</time></trkpt><trkpt lat="40.199290" lon="-5.752439"><ele>719.161</ele><time>2016-02-25T18:12:17Z</time></trkpt><trkpt lat="40.199298" lon="-5.752268"><ele>719.121</ele><time>2016-02-25T18:12:18Z</time></trkpt><trkpt lat="40.199296" lon="-5.752087"><ele>718.963</ele><time>2016-02-25T18:12:20Z</time></trkpt><trkpt lat="40.199258" lon="-5.751905"><ele>719.444</ele><time>2016-02-25T18:12:22Z</time></trkpt><trkpt lat="40.199195" lon="-5.751771"><ele>719.218</ele><time>2016-02-25T18:12:23Z</time></trkpt><trkpt lat="40.199187" lon="-5.751669"><ele>718.808</ele><time>2016-02-25T18:12:24Z</time></trkpt><trkpt lat="40.199194" lon="-5.751658"><ele>718.677</ele><time>2016-02-25T18:12:24Z</time></trkpt><trkpt lat="40.199223" lon="-5.751629"><ele>718.068</ele><time>2016-02-25T18:12:24Z</time></trkpt><trkpt lat="40.199240" lon="-5.751580"><ele>718.780</ele><time>2016-02-25T18:12:25Z</time></trkpt><trkpt lat="40.199254" lon="-5.751517"><ele>719.455</ele><time>2016-02-25T18:12:25Z</time></trkpt><trkpt lat="40.199216" lon="-5.751343"><ele>719.351</ele><time>2016-02-25T18:12:27Z</time></trkpt><trkpt lat="40.199218" lon="-5.751332"><ele>719.345</ele><time>2016-02-25T18:12:27Z</time></trkpt><trkpt lat="40.199233" lon="-5.751293"><ele>719.225</ele><time>2016-02-25T18:12:27Z</time></trkpt><trkpt lat="40.199240" lon="-5.751264"><ele>719.315</ele><time>2016-02-25T18:12:28Z</time></trkpt><trkpt lat="40.199284" lon="-5.751182"><ele>718.672</ele><time>2016-02-25T18:12:28Z</time></trkpt><trkpt lat="40.199303" lon="-5.751041"><ele>717.813</ele><time>2016-02-25T18:12:30Z</time></trkpt><trkpt lat="40.199317" lon="-5.750978"><ele>717.614</ele><time>2016-02-25T18:12:30Z</time></trkpt><trkpt lat="40.199324" lon="-5.750920"><ele>717.708</ele><time>2016-02-25T18:12:31Z</time></trkpt><trkpt lat="40.199341" lon="-5.750770"><ele>717.078</ele><time>2016-02-25T18:12:32Z</time></trkpt><trkpt lat="40.199368" lon="-5.750576"><ele>717.389</ele><time>2016-02-25T18:12:34Z</time></trkpt><trkpt lat="40.199370" lon="-5.750443"><ele>717.461</ele><time>2016-02-25T18:12:35Z</time></trkpt><trkpt lat="40.199329" lon="-5.750331"><ele>718.046</ele><time>2016-02-25T18:12:36Z</time></trkpt><trkpt lat="40.199289" lon="-5.750219"><ele>719.512</ele><time>2016-02-25T18:12:37Z</time></trkpt><trkpt lat="40.199264" lon="-5.750116"><ele>720.856</ele><time>2016-02-25T18:12:38Z</time></trkpt><trkpt lat="40.199244" lon="-5.750010"><ele>721.546</ele><time>2016-02-25T18:12:39Z</time></trkpt><trkpt lat="40.199242" lon="-5.749996"><ele>721.196</ele><time>2016-02-25T18:12:39Z</time></trkpt><trkpt lat="40.199232" lon="-5.749833"><ele>721.278</ele><time>2016-02-25T18:12:40Z</time></trkpt><trkpt lat="40.199221" lon="-5.749725"><ele>722.333</ele><time>2016-02-25T18:12:41Z</time></trkpt><trkpt lat="40.199211" lon="-5.749629"><ele>723.326</ele><time>2016-02-25T18:12:42Z</time></trkpt><trkpt lat="40.199184" lon="-5.749504"><ele>723.708</ele><time>2016-02-25T18:12:43Z</time></trkpt><trkpt lat="40.199164" lon="-5.749370"><ele>724.058</ele><time>2016-02-25T18:12:44Z</time></trkpt><trkpt lat="40.199155" lon="-5.749262"><ele>724.839</ele><time>2016-02-25T18:12:45Z</time></trkpt><trkpt lat="40.199149" lon="-5.749164"><ele>725.641</ele><time>2016-02-25T18:12:46Z</time></trkpt><trkpt lat="40.199153" lon="-5.749034"><ele>727.066</ele><time>2016-02-25T18:12:47Z</time></trkpt><trkpt lat="40.199139" lon="-5.748949"><ele>728.832</ele><time>2016-02-25T18:12:48Z</time></trkpt><trkpt lat="40.199124" lon="-5.748869"><ele>728.796</ele><time>2016-02-25T18:12:49Z</time></trkpt><trkpt lat="40.199082" lon="-5.748737"><ele>729.666</ele><time>2016-02-25T18:12:50Z</time></trkpt><trkpt lat="40.199021" lon="-5.748616"><ele>730.046</ele><time>2016-02-25T18:12:51Z</time></trkpt><trkpt lat="40.198938" lon="-5.748422"><ele>730.288</ele><time>2016-02-25T18:12:53Z</time></trkpt><trkpt lat="40.198916" lon="-5.748378"><ele>730.524</ele><time>2016-02-25T18:12:53Z</time></trkpt><trkpt lat="40.198850" lon="-5.748251"><ele>731.526</ele><time>2016-02-25T18:12:55Z</time></trkpt><trkpt lat="40.198821" lon="-5.748154"><ele>731.708</ele><time>2016-02-25T18:12:55Z</time></trkpt><trkpt lat="40.198788" lon="-5.748075"><ele>732.899</ele><time>2016-02-25T18:12:56Z</time></trkpt><trkpt lat="40.198808" lon="-5.747982"><ele>733.790</ele><time>2016-02-25T18:12:57Z</time></trkpt><trkpt lat="40.198884" lon="-5.747930"><ele>735.452</ele><time>2016-02-25T18:12:58Z</time></trkpt><trkpt lat="40.199000" lon="-5.747926"><ele>736.937</ele><time>2016-02-25T18:12:59Z</time></trkpt><trkpt lat="40.199085" lon="-5.747895"><ele>738.193</ele><time>2016-02-25T18:13:00Z</time></trkpt><trkpt lat="40.199131" lon="-5.747794"><ele>738.497</ele><time>2016-02-25T18:13:01Z</time></trkpt><trkpt lat="40.199161" lon="-5.747654"><ele>739.197</ele><time>2016-02-25T18:13:03Z</time></trkpt><trkpt lat="40.199172" lon="-5.747526"><ele>739.687</ele><time>2016-02-25T18:13:04Z</time></trkpt><trkpt lat="40.199186" lon="-5.747465"><ele>739.557</ele><time>2016-02-25T18:13:04Z</time></trkpt><trkpt lat="40.199186" lon="-5.747331"><ele>740.600</ele><time>2016-02-25T18:13:05Z</time></trkpt><trkpt lat="40.199177" lon="-5.747205"><ele>741.920</ele><time>2016-02-25T18:13:06Z</time></trkpt><trkpt lat="40.199176" lon="-5.747148"><ele>742.408</ele><time>2016-02-25T18:13:07Z</time></trkpt><trkpt lat="40.199138" lon="-5.747007"><ele>743.936</ele><time>2016-02-25T18:13:08Z</time></trkpt><trkpt lat="40.199070" lon="-5.746889"><ele>744.297</ele><time>2016-02-25T18:13:09Z</time></trkpt><trkpt lat="40.199045" lon="-5.746768"><ele>744.359</ele><time>2016-02-25T18:13:10Z</time></trkpt><trkpt lat="40.199054" lon="-5.746723"><ele>744.194</ele><time>2016-02-25T18:13:11Z</time></trkpt><trkpt lat="40.199104" lon="-5.746650"><ele>743.580</ele><time>2016-02-25T18:13:12Z</time></trkpt><trkpt lat="40.199142" lon="-5.746583"><ele>744.414</ele><time>2016-02-25T18:13:12Z</time></trkpt><trkpt lat="40.199212" lon="-5.746482"><ele>745.024</ele><time>2016-02-25T18:13:14Z</time></trkpt><trkpt lat="40.199246" lon="-5.746323"><ele>745.064</ele><time>2016-02-25T18:13:15Z</time></trkpt><trkpt lat="40.199260" lon="-5.746157"><ele>746.337</ele><time>2016-02-25T18:13:16Z</time></trkpt><trkpt lat="40.199283" lon="-5.745977"><ele>746.149</ele><time>2016-02-25T18:13:18Z</time></trkpt><trkpt lat="40.199298" lon="-5.745919"><ele>745.813</ele><time>2016-02-25T18:13:18Z</time></trkpt><trkpt lat="40.199306" lon="-5.745748"><ele>747.908</ele><time>2016-02-25T18:13:20Z</time></trkpt><trkpt lat="40.199316" lon="-5.745578"><ele>748.234</ele><time>2016-02-25T18:13:21Z</time></trkpt><trkpt lat="40.199318" lon="-5.745419"><ele>748.815</ele><time>2016-02-25T18:13:23Z</time></trkpt><trkpt lat="40.199295" lon="-5.745257"><ele>748.957</ele><time>2016-02-25T18:13:24Z</time></trkpt><trkpt lat="40.199247" lon="-5.745072"><ele>749.562</ele><time>2016-02-25T18:13:26Z</time></trkpt><trkpt lat="40.199195" lon="-5.744887"><ele>749.758</ele><time>2016-02-25T18:13:27Z</time></trkpt><trkpt lat="40.199177" lon="-5.744806"><ele>749.872</ele><time>2016-02-25T18:13:28Z</time></trkpt><trkpt lat="40.199108" lon="-5.744678"><ele>750.332</ele><time>2016-02-25T18:13:29Z</time></trkpt><trkpt lat="40.199034" lon="-5.744561"><ele>751.012</ele><time>2016-02-25T18:13:31Z</time></trkpt><trkpt lat="40.199017" lon="-5.744536"><ele>751.183</ele><time>2016-02-25T18:13:31Z</time></trkpt><trkpt lat="40.198919" lon="-5.744450"><ele>752.125</ele><time>2016-02-25T18:13:32Z</time></trkpt><trkpt lat="40.198919" lon="-5.744341"><ele>751.417</ele><time>2016-02-25T18:13:33Z</time></trkpt><trkpt lat="40.198941" lon="-5.744218"><ele>751.808</ele><time>2016-02-25T18:13:34Z</time></trkpt><trkpt lat="40.198953" lon="-5.744171"><ele>752.459</ele><time>2016-02-25T18:13:35Z</time></trkpt><trkpt lat="40.198954" lon="-5.744018"><ele>753.420</ele><time>2016-02-25T18:13:36Z</time></trkpt><trkpt lat="40.198937" lon="-5.743889"><ele>754.432</ele><time>2016-02-25T18:13:37Z</time></trkpt><trkpt lat="40.198871" lon="-5.743757"><ele>756.087</ele><time>2016-02-25T18:13:39Z</time></trkpt><trkpt lat="40.198830" lon="-5.743666"><ele>756.783</ele><time>2016-02-25T18:13:39Z</time></trkpt><trkpt lat="40.198814" lon="-5.743624"><ele>756.947</ele><time>2016-02-25T18:13:40Z</time></trkpt><trkpt lat="40.198788" lon="-5.743515"><ele>757.947</ele><time>2016-02-25T18:13:41Z</time></trkpt><trkpt lat="40.198748" lon="-5.743416"><ele>760.127</ele><time>2016-02-25T18:13:42Z</time></trkpt><trkpt lat="40.198740" lon="-5.743403"><ele>760.338</ele><time>2016-02-25T18:13:42Z</time></trkpt><trkpt lat="40.198698" lon="-5.743279"><ele>761.770</ele><time>2016-02-25T18:13:43Z</time></trkpt><trkpt lat="40.198653" lon="-5.743179"><ele>762.817</ele><time>2016-02-25T18:13:44Z</time></trkpt><trkpt lat="40.198629" lon="-5.743104"><ele>764.208</ele><time>2016-02-25T18:13:45Z</time></trkpt><trkpt lat="40.198578" lon="-5.742949"><ele>764.884</ele><time>2016-02-25T18:13:46Z</time></trkpt><trkpt lat="40.198550" lon="-5.742815"><ele>765.485</ele><time>2016-02-25T18:13:47Z</time></trkpt><trkpt lat="40.198516" lon="-5.742710"><ele>767.217</ele><time>2016-02-25T18:13:48Z</time></trkpt><trkpt lat="40.198474" lon="-5.742595"><ele>769.342</ele><time>2016-02-25T18:13:49Z</time></trkpt><trkpt lat="40.198450" lon="-5.742479"><ele>771.068</ele><time>2016-02-25T18:13:50Z</time></trkpt><trkpt lat="40.198426" lon="-5.742384"><ele>773.792</ele><time>2016-02-25T18:13:51Z</time></trkpt><trkpt lat="40.198401" lon="-5.742317"><ele>774.352</ele><time>2016-02-25T18:13:52Z</time></trkpt><trkpt lat="40.198351" lon="-5.742225"><ele>775.892</ele><time>2016-02-25T18:13:53Z</time></trkpt><trkpt lat="40.198314" lon="-5.742093"><ele>777.859</ele><time>2016-02-25T18:13:54Z</time></trkpt><trkpt lat="40.198289" lon="-5.741998"><ele>778.703</ele><time>2016-02-25T18:13:55Z</time></trkpt><trkpt lat="40.198232" lon="-5.741851"><ele>779.323</ele><time>2016-02-25T18:13:56Z</time></trkpt><trkpt lat="40.198215" lon="-5.741703"><ele>779.408</ele><time>2016-02-25T18:13:58Z</time></trkpt><trkpt lat="40.198128" lon="-5.741594"><ele>779.676</ele><time>2016-02-25T18:13:59Z</time></trkpt><trkpt lat="40.198125" lon="-5.741584"><ele>779.557</ele><time>2016-02-25T18:13:59Z</time></trkpt><trkpt lat="40.198133" lon="-5.741527"><ele>779.049</ele><time>2016-02-25T18:13:59Z</time></trkpt><trkpt lat="40.198148" lon="-5.741502"><ele>779.224</ele><time>2016-02-25T18:14:00Z</time></trkpt><trkpt lat="40.198198" lon="-5.741469"><ele>780.110</ele><time>2016-02-25T18:14:00Z</time></trkpt><trkpt lat="40.198219" lon="-5.741449"><ele>780.774</ele><time>2016-02-25T18:14:01Z</time></trkpt><trkpt lat="40.198234" lon="-5.741433"><ele>781.374</ele><time>2016-02-25T18:14:01Z</time></trkpt><trkpt lat="40.198275" lon="-5.741407"><ele>781.654</ele><time>2016-02-25T18:14:01Z</time></trkpt><trkpt lat="40.198285" lon="-5.741379"><ele>781.694</ele><time>2016-02-25T18:14:02Z</time></trkpt><trkpt lat="40.198305" lon="-5.741249"><ele>780.757</ele><time>2016-02-25T18:14:03Z</time></trkpt><trkpt lat="40.198319" lon="-5.741080"><ele>780.422</ele><time>2016-02-25T18:14:04Z</time></trkpt><trkpt lat="40.198335" lon="-5.740902"><ele>781.608</ele><time>2016-02-25T18:14:06Z</time></trkpt><trkpt lat="40.198358" lon="-5.740851"><ele>781.370</ele><time>2016-02-25T18:14:06Z</time></trkpt><trkpt lat="40.198375" lon="-5.740805"><ele>781.961</ele><time>2016-02-25T18:14:07Z</time></trkpt><trkpt lat="40.198412" lon="-5.740664"><ele>781.543</ele><time>2016-02-25T18:14:08Z</time></trkpt><trkpt lat="40.198440" lon="-5.740492"><ele>781.688</ele><time>2016-02-25T18:14:09Z</time></trkpt><trkpt lat="40.198463" lon="-5.740342"><ele>782.954</ele><time>2016-02-25T18:14:11Z</time></trkpt><trkpt lat="40.198489" lon="-5.740202"><ele>783.668</ele><time>2016-02-25T18:14:12Z</time></trkpt><trkpt lat="40.198513" lon="-5.740018"><ele>784.798</ele><time>2016-02-25T18:14:14Z</time></trkpt><trkpt lat="40.198547" lon="-5.739857"><ele>785.538</ele><time>2016-02-25T18:14:15Z</time></trkpt><trkpt lat="40.198557" lon="-5.739745"><ele>784.849</ele><time>2016-02-25T18:14:16Z</time></trkpt><trkpt lat="40.198527" lon="-5.739568"><ele>784.102</ele><time>2016-02-25T18:14:17Z</time></trkpt><trkpt lat="40.198519" lon="-5.739432"><ele>784.522</ele><time>2016-02-25T18:14:19Z</time></trkpt><trkpt lat="40.198513" lon="-5.739235"><ele>784.308</ele><time>2016-02-25T18:14:20Z</time></trkpt><trkpt lat="40.198501" lon="-5.739081"><ele>783.455</ele><time>2016-02-25T18:14:22Z</time></trkpt><trkpt lat="40.198474" lon="-5.738910"><ele>783.476</ele><time>2016-02-25T18:14:23Z</time></trkpt><trkpt lat="40.198463" lon="-5.738835"><ele>783.098</ele><time>2016-02-25T18:14:24Z</time></trkpt><trkpt lat="40.198448" lon="-5.738631"><ele>782.473</ele><time>2016-02-25T18:14:25Z</time></trkpt><trkpt lat="40.198414" lon="-5.738477"><ele>782.539</ele><time>2016-02-25T18:14:27Z</time></trkpt><trkpt lat="40.198408" lon="-5.738443"><ele>782.653</ele><time>2016-02-25T18:14:27Z</time></trkpt><trkpt lat="40.198393" lon="-5.738291"><ele>784.233</ele><time>2016-02-25T18:14:28Z</time></trkpt><trkpt lat="40.198321" lon="-5.738245"><ele>785.883</ele><time>2016-02-25T18:14:29Z</time></trkpt><trkpt lat="40.198251" lon="-5.738131"><ele>786.311</ele><time>2016-02-25T18:14:31Z</time></trkpt><trkpt lat="40.198148" lon="-5.738084"><ele>787.921</ele><time>2016-02-25T18:14:32Z</time></trkpt><trkpt lat="40.198133" lon="-5.738067"><ele>788.203</ele><time>2016-02-25T18:14:32Z</time></trkpt><trkpt lat="40.198109" lon="-5.738029"><ele>788.308</ele><time>2016-02-25T18:14:32Z</time></trkpt><trkpt lat="40.198106" lon="-5.738002"><ele>788.152</ele><time>2016-02-25T18:14:33Z</time></trkpt><trkpt lat="40.198062" lon="-5.737896"><ele>788.373</ele><time>2016-02-25T18:14:34Z</time></trkpt><trkpt lat="40.198075" lon="-5.737874"><ele>787.565</ele><time>2016-02-25T18:14:34Z</time></trkpt><trkpt lat="40.198052" lon="-5.737858"><ele>787.790</ele><time>2016-02-25T18:14:34Z</time></trkpt><trkpt lat="40.198089" lon="-5.737544"><ele>787.296</ele><time>2016-02-25T18:14:37Z</time></trkpt><trkpt lat="40.198130" lon="-5.737526"><ele>787.610</ele><time>2016-02-25T18:14:37Z</time></trkpt><trkpt lat="40.198181" lon="-5.737538"><ele>787.020</ele><time>2016-02-25T18:14:38Z</time></trkpt><trkpt lat="40.198242" lon="-5.737538"><ele>786.990</ele><time>2016-02-25T18:14:39Z</time></trkpt><trkpt lat="40.198255" lon="-5.737533"><ele>787.385</ele><time>2016-02-25T18:14:39Z</time></trkpt><trkpt lat="40.198287" lon="-5.737527"><ele>788.289</ele><time>2016-02-25T18:14:39Z</time></trkpt><trkpt lat="40.198452" lon="-5.737546"><ele>787.717</ele><time>2016-02-25T18:14:41Z</time></trkpt><trkpt lat="40.198576" lon="-5.737484"><ele>788.008</ele><time>2016-02-25T18:14:42Z</time></trkpt><trkpt lat="40.198594" lon="-5.737467"><ele>787.519</ele><time>2016-02-25T18:14:43Z</time></trkpt><trkpt lat="40.198612" lon="-5.737396"><ele>787.490</ele><time>2016-02-25T18:14:43Z</time></trkpt><trkpt lat="40.198578" lon="-5.737338"><ele>788.642</ele><time>2016-02-25T18:14:44Z</time></trkpt><trkpt lat="40.198580" lon="-5.737296"><ele>788.757</ele><time>2016-02-25T18:14:44Z</time></trkpt><trkpt lat="40.198587" lon="-5.737165"><ele>788.263</ele><time>2016-02-25T18:14:45Z</time></trkpt><trkpt lat="40.198581" lon="-5.736960"><ele>789.197</ele><time>2016-02-25T18:14:47Z</time></trkpt><trkpt lat="40.198590" lon="-5.736792"><ele>788.967</ele><time>2016-02-25T18:14:49Z</time></trkpt><trkpt lat="40.198578" lon="-5.736719"><ele>791.567</ele><time>2016-02-25T18:14:49Z</time></trkpt><trkpt lat="40.198585" lon="-5.736679"><ele>791.651</ele><time>2016-02-25T18:14:50Z</time></trkpt><trkpt lat="40.198591" lon="-5.736640"><ele>791.401</ele><time>2016-02-25T18:14:50Z</time></trkpt><trkpt lat="40.198582" lon="-5.736564"><ele>793.611</ele><time>2016-02-25T18:14:51Z</time></trkpt><trkpt lat="40.198556" lon="-5.736430"><ele>798.708</ele><time>2016-02-25T18:14:52Z</time></trkpt><trkpt lat="40.198558" lon="-5.736415"><ele>798.956</ele><time>2016-02-25T18:14:52Z</time></trkpt><trkpt lat="40.198577" lon="-5.736303"><ele>801.467</ele><time>2016-02-25T18:14:53Z</time></trkpt><trkpt lat="40.198605" lon="-5.736197"><ele>802.919</ele><time>2016-02-25T18:14:54Z</time></trkpt><trkpt lat="40.198623" lon="-5.736080"><ele>803.684</ele><time>2016-02-25T18:14:55Z</time></trkpt><trkpt lat="40.198650" lon="-5.735986"><ele>805.070</ele><time>2016-02-25T18:14:56Z</time></trkpt><trkpt lat="40.198660" lon="-5.735914"><ele>806.324</ele><time>2016-02-25T18:14:56Z</time></trkpt><trkpt lat="40.198670" lon="-5.735881"><ele>807.224</ele><time>2016-02-25T18:14:57Z</time></trkpt><trkpt lat="40.198676" lon="-5.735818"><ele>810.114</ele><time>2016-02-25T18:14:57Z</time></trkpt><trkpt lat="40.198682" lon="-5.735803"><ele>810.326</ele><time>2016-02-25T18:14:57Z</time></trkpt><trkpt lat="40.198679" lon="-5.735773"><ele>811.047</ele><time>2016-02-25T18:14:57Z</time></trkpt><trkpt lat="40.198703" lon="-5.735695"><ele>812.111</ele><time>2016-02-25T18:14:58Z</time></trkpt><trkpt lat="40.198711" lon="-5.735660"><ele>813.408</ele><time>2016-02-25T18:14:59Z</time></trkpt><trkpt lat="40.198721" lon="-5.735587"><ele>814.913</ele><time>2016-02-25T18:14:59Z</time></trkpt><trkpt lat="40.198730" lon="-5.735459"><ele>818.684</ele><time>2016-02-25T18:15:00Z</time></trkpt><trkpt lat="40.198732" lon="-5.735439"><ele>819.196</ele><time>2016-02-25T18:15:00Z</time></trkpt><trkpt lat="40.198740" lon="-5.735351"><ele>821.241</ele><time>2016-02-25T18:15:01Z</time></trkpt><trkpt lat="40.198772" lon="-5.735273"><ele>822.557</ele><time>2016-02-25T18:15:02Z</time></trkpt><trkpt lat="40.198773" lon="-5.735241"><ele>823.361</ele><time>2016-02-25T18:15:02Z</time></trkpt><trkpt lat="40.198858" lon="-5.735102"><ele>824.251</ele><time>2016-02-25T18:15:04Z</time></trkpt><trkpt lat="40.198911" lon="-5.734961"><ele>824.961</ele><time>2016-02-25T18:15:05Z</time></trkpt><trkpt lat="40.198922" lon="-5.734938"><ele>824.634</ele><time>2016-02-25T18:15:05Z</time></trkpt><trkpt lat="40.198988" lon="-5.734873"><ele>823.255</ele><time>2016-02-25T18:15:06Z</time></trkpt><trkpt lat="40.199036" lon="-5.734767"><ele>825.310</ele><time>2016-02-25T18:15:07Z</time></trkpt><trkpt lat="40.199052" lon="-5.734735"><ele>826.308</ele><time>2016-02-25T18:15:08Z</time></trkpt><trkpt lat="40.199089" lon="-5.734698"><ele>826.034</ele><time>2016-02-25T18:15:08Z</time></trkpt><trkpt lat="40.199112" lon="-5.734625"><ele>826.825</ele><time>2016-02-25T18:15:09Z</time></trkpt><trkpt lat="40.199126" lon="-5.734566"><ele>827.957</ele><time>2016-02-25T18:15:09Z</time></trkpt><trkpt lat="40.199135" lon="-5.734521"><ele>828.982</ele><time>2016-02-25T18:15:10Z</time></trkpt><trkpt lat="40.199135" lon="-5.734422"><ele>830.938</ele><time>2016-02-25T18:15:10Z</time></trkpt><trkpt lat="40.199136" lon="-5.734381"><ele>831.222</ele><time>2016-02-25T18:15:11Z</time></trkpt><trkpt lat="40.199137" lon="-5.734260"><ele>831.432</ele><time>2016-02-25T18:15:12Z</time></trkpt><trkpt lat="40.199136" lon="-5.734186"><ele>831.282</ele><time>2016-02-25T18:15:12Z</time></trkpt><trkpt lat="40.199194" lon="-5.734105"><ele>831.956</ele><time>2016-02-25T18:15:13Z</time></trkpt><trkpt lat="40.199208" lon="-5.734083"><ele>832.259</ele><time>2016-02-25T18:15:14Z</time></trkpt><trkpt lat="40.199269" lon="-5.733986"><ele>833.414</ele><time>2016-02-25T18:15:15Z</time></trkpt><trkpt lat="40.199354" lon="-5.733851"><ele>834.608</ele><time>2016-02-25T18:15:16Z</time></trkpt><trkpt lat="40.199407" lon="-5.733710"><ele>837.036</ele><time>2016-02-25T18:15:18Z</time></trkpt><trkpt lat="40.199414" lon="-5.733665"><ele>836.827</ele><time>2016-02-25T18:15:18Z</time></trkpt><trkpt lat="40.199419" lon="-5.733615"><ele>837.829</ele><time>2016-02-25T18:15:18Z</time></trkpt><trkpt lat="40.199411" lon="-5.733584"><ele>839.314</ele><time>2016-02-25T18:15:19Z</time></trkpt><trkpt lat="40.199414" lon="-5.733506"><ele>841.260</ele><time>2016-02-25T18:15:19Z</time></trkpt><trkpt lat="40.199430" lon="-5.733462"><ele>841.384</ele><time>2016-02-25T18:15:20Z</time></trkpt><trkpt lat="40.199436" lon="-5.733451"><ele>841.234</ele><time>2016-02-25T18:15:20Z</time></trkpt><trkpt lat="40.199425" lon="-5.733365"><ele>844.074</ele><time>2016-02-25T18:15:21Z</time></trkpt><trkpt lat="40.199432" lon="-5.733345"><ele>844.032</ele><time>2016-02-25T18:15:21Z</time></trkpt><trkpt lat="40.199453" lon="-5.733296"><ele>843.192</ele><time>2016-02-25T18:15:21Z</time></trkpt><trkpt lat="40.199452" lon="-5.733218"><ele>844.611</ele><time>2016-02-25T18:15:22Z</time></trkpt><trkpt lat="40.199455" lon="-5.733185"><ele>844.808</ele><time>2016-02-25T18:15:22Z</time></trkpt><trkpt lat="40.199459" lon="-5.733158"><ele>844.724</ele><time>2016-02-25T18:15:22Z</time></trkpt><trkpt lat="40.199478" lon="-5.733132"><ele>843.495</ele><time>2016-02-25T18:15:23Z</time></trkpt><trkpt lat="40.199476" lon="-5.733000"><ele>846.147</ele><time>2016-02-25T18:15:24Z</time></trkpt><trkpt lat="40.199481" lon="-5.732917"><ele>848.012</ele><time>2016-02-25T18:15:25Z</time></trkpt><trkpt lat="40.199508" lon="-5.732804"><ele>848.738</ele><time>2016-02-25T18:15:26Z</time></trkpt><trkpt lat="40.199520" lon="-5.732771"><ele>848.792</ele><time>2016-02-25T18:15:26Z</time></trkpt><trkpt lat="40.199540" lon="-5.732761"><ele>847.722</ele><time>2016-02-25T18:15:26Z</time></trkpt><trkpt lat="40.199580" lon="-5.732620"><ele>848.772</ele><time>2016-02-25T18:15:27Z</time></trkpt><trkpt lat="40.199583" lon="-5.732588"><ele>849.412</ele><time>2016-02-25T18:15:28Z</time></trkpt><trkpt lat="40.199592" lon="-5.732478"><ele>851.632</ele><time>2016-02-25T18:15:29Z</time></trkpt><trkpt lat="40.199590" lon="-5.732408"><ele>853.005</ele><time>2016-02-25T18:15:29Z</time></trkpt><trkpt lat="40.199618" lon="-5.732310"><ele>852.508</ele><time>2016-02-25T18:15:30Z</time></trkpt><trkpt lat="40.199672" lon="-5.732209"><ele>855.032</ele><time>2016-02-25T18:15:31Z</time></trkpt><trkpt lat="40.199680" lon="-5.732186"><ele>855.563</ele><time>2016-02-25T18:15:31Z</time></trkpt><trkpt lat="40.199722" lon="-5.732054"><ele>857.245</ele><time>2016-02-25T18:15:33Z</time></trkpt><trkpt lat="40.199739" lon="-5.731968"><ele>857.970</ele><time>2016-02-25T18:15:33Z</time></trkpt><trkpt lat="40.199746" lon="-5.731893"><ele>858.856</ele><time>2016-02-25T18:15:34Z</time></trkpt><trkpt lat="40.199776" lon="-5.731816"><ele>858.130</ele><time>2016-02-25T18:15:35Z</time></trkpt><trkpt lat="40.199791" lon="-5.731785"><ele>857.640</ele><time>2016-02-25T18:15:35Z</time></trkpt><trkpt lat="40.199803" lon="-5.731742"><ele>857.360</ele><time>2016-02-25T18:15:35Z</time></trkpt><trkpt lat="40.199816" lon="-5.731692"><ele>856.735</ele><time>2016-02-25T18:15:36Z</time></trkpt><trkpt lat="40.199848" lon="-5.731579"><ele>856.686</ele><time>2016-02-25T18:15:37Z</time></trkpt><trkpt lat="40.199856" lon="-5.731508"><ele>857.014</ele><time>2016-02-25T18:15:37Z</time></trkpt><trkpt lat="40.199870" lon="-5.731385"><ele>857.308</ele><time>2016-02-25T18:15:39Z</time></trkpt><trkpt lat="40.199872" lon="-5.731245"><ele>857.574</ele><time>2016-02-25T18:15:40Z</time></trkpt><trkpt lat="40.199880" lon="-5.731100"><ele>856.675</ele><time>2016-02-25T18:15:41Z</time></trkpt><trkpt lat="40.199875" lon="-5.731070"><ele>857.047</ele><time>2016-02-25T18:15:41Z</time></trkpt><trkpt lat="40.199880" lon="-5.730976"><ele>856.632</ele><time>2016-02-25T18:15:42Z</time></trkpt><trkpt lat="40.199882" lon="-5.730860"><ele>856.998</ele><time>2016-02-25T18:15:43Z</time></trkpt><trkpt lat="40.199940" lon="-5.730792"><ele>858.052</ele><time>2016-02-25T18:15:44Z</time></trkpt><trkpt lat="40.200000" lon="-5.730740"><ele>857.952</ele><time>2016-02-25T18:15:45Z</time></trkpt><trkpt lat="40.200060" lon="-5.730695"><ele>858.882</ele><time>2016-02-25T18:15:45Z</time></trkpt><trkpt lat="40.200114" lon="-5.730730"><ele>859.542</ele><time>2016-02-25T18:15:46Z</time></trkpt><trkpt lat="40.200129" lon="-5.730756"><ele>859.622</ele><time>2016-02-25T18:15:46Z</time></trkpt><trkpt lat="40.200192" lon="-5.730821"><ele>860.114</ele><time>2016-02-25T18:15:47Z</time></trkpt><trkpt lat="40.200284" lon="-5.730918"><ele>859.308</ele><time>2016-02-25T18:15:49Z</time></trkpt><trkpt lat="40.200311" lon="-5.730925"><ele>860.065</ele><time>2016-02-25T18:15:49Z</time></trkpt><trkpt lat="40.200349" lon="-5.730940"><ele>860.756</ele><time>2016-02-25T18:15:49Z</time></trkpt><trkpt lat="40.200452" lon="-5.731006"><ele>861.688</ele><time>2016-02-25T18:15:51Z</time></trkpt><trkpt lat="40.200554" lon="-5.731043"><ele>863.893</ele><time>2016-02-25T18:15:52Z</time></trkpt><trkpt lat="40.200603" lon="-5.731066"><ele>864.749</ele><time>2016-02-25T18:15:52Z</time></trkpt><trkpt lat="40.200682" lon="-5.731102"><ele>865.713</ele><time>2016-02-25T18:15:53Z</time></trkpt><trkpt lat="40.200713" lon="-5.731038"><ele>865.993</ele><time>2016-02-25T18:15:54Z</time></trkpt><trkpt lat="40.200724" lon="-5.730992"><ele>864.933</ele><time>2016-02-25T18:15:54Z</time></trkpt><trkpt lat="40.200722" lon="-5.731008"><ele>865.182</ele><time>2016-02-25T18:15:54Z</time></trkpt><trkpt lat="40.200679" lon="-5.730958"><ele>867.243</ele><time>2016-02-25T18:15:55Z</time></trkpt><trkpt lat="40.200684" lon="-5.730943"><ele>866.917</ele><time>2016-02-25T18:15:55Z</time></trkpt><trkpt lat="40.200698" lon="-5.730857"><ele>865.508</ele><time>2016-02-25T18:15:56Z</time></trkpt><trkpt lat="40.200659" lon="-5.730781"><ele>865.339</ele><time>2016-02-25T18:15:57Z</time></trkpt><trkpt lat="40.200631" lon="-5.730721"><ele>865.980</ele><time>2016-02-25T18:15:57Z</time></trkpt><trkpt lat="40.200640" lon="-5.730614"><ele>863.622</ele><time>2016-02-25T18:15:58Z</time></trkpt><trkpt lat="40.200643" lon="-5.730496"><ele>863.687</ele><time>2016-02-25T18:15:59Z</time></trkpt><trkpt lat="40.200643" lon="-5.730471"><ele>863.263</ele><time>2016-02-25T18:15:59Z</time></trkpt><trkpt lat="40.200628" lon="-5.730418"><ele>863.427</ele><time>2016-02-25T18:16:00Z</time></trkpt><trkpt lat="40.200632" lon="-5.730400"><ele>863.127</ele><time>2016-02-25T18:16:00Z</time></trkpt><trkpt lat="40.200664" lon="-5.730262"><ele>861.827</ele><time>2016-02-25T18:16:01Z</time></trkpt><trkpt lat="40.200694" lon="-5.730219"><ele>861.069</ele><time>2016-02-25T18:16:02Z</time></trkpt><trkpt lat="40.200766" lon="-5.730125"><ele>859.504</ele><time>2016-02-25T18:16:03Z</time></trkpt><trkpt lat="40.200783" lon="-5.730082"><ele>860.224</ele><time>2016-02-25T18:16:03Z</time></trkpt><trkpt lat="40.200816" lon="-5.730017"><ele>858.508</ele><time>2016-02-25T18:16:04Z</time></trkpt><trkpt lat="40.200870" lon="-5.729931"><ele>857.377</ele><time>2016-02-25T18:16:05Z</time></trkpt><trkpt lat="40.200929" lon="-5.729870"><ele>855.948</ele><time>2016-02-25T18:16:06Z</time></trkpt><trkpt lat="40.200983" lon="-5.729822"><ele>854.680</ele><time>2016-02-25T18:16:07Z</time></trkpt><trkpt lat="40.201038" lon="-5.729758"><ele>854.465</ele><time>2016-02-25T18:16:07Z</time></trkpt><trkpt lat="40.201109" lon="-5.729664"><ele>853.581</ele><time>2016-02-25T18:16:09Z</time></trkpt><trkpt lat="40.201141" lon="-5.729631"><ele>853.025</ele><time>2016-02-25T18:16:09Z</time></trkpt><trkpt lat="40.201160" lon="-5.729590"><ele>853.565</ele><time>2016-02-25T18:16:09Z</time></trkpt><trkpt lat="40.201144" lon="-5.729550"><ele>855.685</ele><time>2016-02-25T18:16:10Z</time></trkpt><trkpt lat="40.201175" lon="-5.729532"><ele>854.994</ele><time>2016-02-25T18:16:10Z</time></trkpt><trkpt lat="40.201156" lon="-5.729570"><ele>854.357</ele><time>2016-02-25T18:16:11Z</time></trkpt><trkpt lat="40.201178" lon="-5.729551"><ele>854.222</ele><time>2016-02-25T18:16:11Z</time></trkpt><trkpt lat="40.201216" lon="-5.729482"><ele>855.408</ele><time>2016-02-25T18:16:12Z</time></trkpt><trkpt lat="40.201228" lon="-5.729435"><ele>856.930</ele><time>2016-02-25T18:16:12Z</time></trkpt><trkpt lat="40.201258" lon="-5.729402"><ele>856.541</ele><time>2016-02-25T18:16:12Z</time></trkpt><trkpt lat="40.201323" lon="-5.729365"><ele>855.473</ele><time>2016-02-25T18:16:13Z</time></trkpt><trkpt lat="40.201398" lon="-5.729329"><ele>854.668</ele><time>2016-02-25T18:16:14Z</time></trkpt><trkpt lat="40.201419" lon="-5.729318"><ele>854.554</ele><time>2016-02-25T18:16:14Z</time></trkpt><trkpt lat="40.201493" lon="-5.729264"><ele>854.868</ele><time>2016-02-25T18:16:15Z</time></trkpt><trkpt lat="40.201532" lon="-5.729248"><ele>854.528</ele><time>2016-02-25T18:16:16Z</time></trkpt><trkpt lat="40.201566" lon="-5.729218"><ele>854.548</ele><time>2016-02-25T18:16:16Z</time></trkpt><trkpt lat="40.201642" lon="-5.729112"><ele>856.089</ele><time>2016-02-25T18:16:17Z</time></trkpt><trkpt lat="40.201719" lon="-5.729032"><ele>856.806</ele><time>2016-02-25T18:16:18Z</time></trkpt><trkpt lat="40.201765" lon="-5.728969"><ele>857.426</ele><time>2016-02-25T18:16:19Z</time></trkpt><trkpt lat="40.201839" lon="-5.728892"><ele>857.308</ele><time>2016-02-25T18:16:20Z</time></trkpt><trkpt lat="40.201892" lon="-5.728800"><ele>858.369</ele><time>2016-02-25T18:16:21Z</time></trkpt><trkpt lat="40.201922" lon="-5.728690"><ele>859.760</ele><time>2016-02-25T18:16:22Z</time></trkpt><trkpt lat="40.201932" lon="-5.728588"><ele>860.662</ele><time>2016-02-25T18:16:23Z</time></trkpt><trkpt lat="40.201938" lon="-5.728562"><ele>860.717</ele><time>2016-02-25T18:16:23Z</time></trkpt><trkpt lat="40.201950" lon="-5.728517"><ele>860.543</ele><time>2016-02-25T18:16:24Z</time></trkpt><trkpt lat="40.201956" lon="-5.728396"><ele>860.227</ele><time>2016-02-25T18:16:25Z</time></trkpt><trkpt lat="40.201966" lon="-5.728362"><ele>859.637</ele><time>2016-02-25T18:16:25Z</time></trkpt><trkpt lat="40.201977" lon="-5.728272"><ele>859.567</ele><time>2016-02-25T18:16:26Z</time></trkpt><trkpt lat="40.201977" lon="-5.728138"><ele>860.625</ele><time>2016-02-25T18:16:27Z</time></trkpt><trkpt lat="40.201962" lon="-5.728012"><ele>860.126</ele><time>2016-02-25T18:16:28Z</time></trkpt><trkpt lat="40.201954" lon="-5.727970"><ele>860.408</ele><time>2016-02-25T18:16:28Z</time></trkpt><trkpt lat="40.201915" lon="-5.727871"><ele>862.808</ele><time>2016-02-25T18:16:29Z</time></trkpt><trkpt lat="40.201906" lon="-5.727854"><ele>863.273</ele><time>2016-02-25T18:16:30Z</time></trkpt><trkpt lat="40.201882" lon="-5.727835"><ele>864.464</ele><time>2016-02-25T18:16:30Z</time></trkpt><trkpt lat="40.201872" lon="-5.727755"><ele>866.566</ele><time>2016-02-25T18:16:31Z</time></trkpt><trkpt lat="40.201865" lon="-5.727722"><ele>867.211</ele><time>2016-02-25T18:16:31Z</time></trkpt><trkpt lat="40.201858" lon="-5.727623"><ele>869.197</ele><time>2016-02-25T18:16:32Z</time></trkpt><trkpt lat="40.201853" lon="-5.727536"><ele>870.171</ele><time>2016-02-25T18:16:32Z</time></trkpt><trkpt lat="40.201810" lon="-5.727394"><ele>871.711</ele><time>2016-02-25T18:16:34Z</time></trkpt><trkpt lat="40.201797" lon="-5.727346"><ele>872.461</ele><time>2016-02-25T18:16:34Z</time></trkpt><trkpt lat="40.201781" lon="-5.727318"><ele>872.711</ele><time>2016-02-25T18:16:34Z</time></trkpt><trkpt lat="40.201764" lon="-5.727241"><ele>874.021</ele><time>2016-02-25T18:16:35Z</time></trkpt><trkpt lat="40.201742" lon="-5.727190"><ele>874.903</ele><time>2016-02-25T18:16:36Z</time></trkpt><trkpt lat="40.201690" lon="-5.727098"><ele>876.908</ele><time>2016-02-25T18:16:37Z</time></trkpt><trkpt lat="40.201665" lon="-5.727042"><ele>879.042</ele><time>2016-02-25T18:16:37Z</time></trkpt><trkpt lat="40.201680" lon="-5.726969"><ele>879.913</ele><time>2016-02-25T18:16:38Z</time></trkpt><trkpt lat="40.201652" lon="-5.726892"><ele>881.595</ele><time>2016-02-25T18:16:39Z</time></trkpt><trkpt lat="40.201649" lon="-5.726815"><ele>883.050</ele><time>2016-02-25T18:16:39Z</time></trkpt><trkpt lat="40.201622" lon="-5.726737"><ele>884.856</ele><time>2016-02-25T18:16:40Z</time></trkpt><trkpt lat="40.201615" lon="-5.726654"><ele>885.650</ele><time>2016-02-25T18:16:41Z</time></trkpt><trkpt lat="40.201606" lon="-5.726632"><ele>885.940</ele><time>2016-02-25T18:16:41Z</time></trkpt><trkpt lat="40.201648" lon="-5.726644"><ele>883.840</ele><time>2016-02-25T18:16:41Z</time></trkpt><trkpt lat="40.201636" lon="-5.726666"><ele>884.714</ele><time>2016-02-25T18:16:42Z</time></trkpt><trkpt lat="40.201628" lon="-5.726682"><ele>885.154</ele><time>2016-02-25T18:16:42Z</time></trkpt><trkpt lat="40.201617" lon="-5.726691"><ele>885.509</ele><time>2016-02-25T18:16:42Z</time></trkpt><trkpt lat="40.201656" lon="-5.726637"><ele>883.108</ele><time>2016-02-25T18:16:42Z</time></trkpt><trkpt lat="40.201639" lon="-5.726642"><ele>884.292</ele><time>2016-02-25T18:16:43Z</time></trkpt><trkpt lat="40.201636" lon="-5.726629"><ele>884.223</ele><time>2016-02-25T18:16:43Z</time></trkpt><trkpt lat="40.201592" lon="-5.726619"><ele>886.255</ele><time>2016-02-25T18:16:43Z</time></trkpt><trkpt lat="40.201585" lon="-5.726582"><ele>886.230</ele><time>2016-02-25T18:16:44Z</time></trkpt><trkpt lat="40.201619" lon="-5.726495"><ele>884.166</ele><time>2016-02-25T18:16:44Z</time></trkpt><trkpt lat="40.201651" lon="-5.726415"><ele>885.360</ele><time>2016-02-25T18:16:45Z</time></trkpt><trkpt lat="40.201714" lon="-5.726387"><ele>886.230</ele><time>2016-02-25T18:16:46Z</time></trkpt><trkpt lat="40.201775" lon="-5.726308"><ele>886.710</ele><time>2016-02-25T18:16:47Z</time></trkpt><trkpt lat="40.201829" lon="-5.726235"><ele>886.868</ele><time>2016-02-25T18:16:48Z</time></trkpt><trkpt lat="40.201863" lon="-5.726121"><ele>884.842</ele><time>2016-02-25T18:16:49Z</time></trkpt><trkpt lat="40.201916" lon="-5.726186"><ele>883.026</ele><time>2016-02-25T18:16:50Z</time></trkpt><trkpt lat="40.201961" lon="-5.726164"><ele>881.508</ele><time>2016-02-25T18:16:50Z</time></trkpt><trkpt lat="40.202000" lon="-5.726063"><ele>881.057</ele><time>2016-02-25T18:16:51Z</time></trkpt><trkpt lat="40.202059" lon="-5.725985"><ele>880.928</ele><time>2016-02-25T18:16:52Z</time></trkpt><trkpt lat="40.202122" lon="-5.725922"><ele>881.930</ele><time>2016-02-25T18:16:53Z</time></trkpt><trkpt lat="40.202174" lon="-5.725839"><ele>881.925</ele><time>2016-02-25T18:16:54Z</time></trkpt><trkpt lat="40.202259" lon="-5.725827"><ele>881.281</ele><time>2016-02-25T18:16:55Z</time></trkpt><trkpt lat="40.202335" lon="-5.725796"><ele>881.895</ele><time>2016-02-25T18:16:56Z</time></trkpt><trkpt lat="40.202428" lon="-5.725772"><ele>882.085</ele><time>2016-02-25T18:16:57Z</time></trkpt><trkpt lat="40.202490" lon="-5.725768"><ele>881.085</ele><time>2016-02-25T18:16:57Z</time></trkpt><trkpt lat="40.202477" lon="-5.725791"><ele>880.995</ele><time>2016-02-25T18:16:58Z</time></trkpt><trkpt lat="40.202515" lon="-5.725755"><ele>880.849</ele><time>2016-02-25T18:16:58Z</time></trkpt><trkpt lat="40.202536" lon="-5.725761"><ele>880.323</ele><time>2016-02-25T18:16:58Z</time></trkpt><trkpt lat="40.202535" lon="-5.725777"><ele>880.108</ele><time>2016-02-25T18:16:59Z</time></trkpt><trkpt lat="40.202591" lon="-5.725783"><ele>878.610</ele><time>2016-02-25T18:16:59Z</time></trkpt><trkpt lat="40.202642" lon="-5.725769"><ele>877.981</ele><time>2016-02-25T18:17:00Z</time></trkpt><trkpt lat="40.202685" lon="-5.725708"><ele>878.593</ele><time>2016-02-25T18:17:00Z</time></trkpt><trkpt lat="40.202733" lon="-5.725761"><ele>876.528</ele><time>2016-02-25T18:17:01Z</time></trkpt><trkpt lat="40.202804" lon="-5.725906"><ele>872.444</ele><time>2016-02-25T18:17:03Z</time></trkpt><trkpt lat="40.202882" lon="-5.726092"><ele>874.088</ele><time>2016-02-25T18:17:04Z</time></trkpt></trkseg></trk></gpx>